Líbí se Vám tento web? Budeme velmi rádi, pokud přidáte hodnocení +1

Seznam meteostanic a jejich METAR

Vyhledat místa podle abecedy:
A B C D E F G H I J K L M N O P Q R S T U V W X Y Z

Filtrovat:

ID stanice:
a/nebo
Název místa (fulltext):
 
Místo (ID)Naposledy načteno 
Temelín (Temelin) 17.01.2018 21:00 UTC Zobrazit data
Místo: Temelín
Teplota: 1 °C (pocitová: -9.6 °C)
Vítr: 9 m/s z(e) 280°
Počasí: sněží
Dohlednost: 20 km
Zákl. oblačnosti: 7/8 720 m
Vlhkost: 75%
Tahiti (NTAA) 17.01.2018 21:00 UTC Zobrazit METAR
NTAA 172100Z 05005KT 030V090 9999 VCSH FEW020 SCT053 27/23 Q1013 WS R22 NOSIG
Taipei (RCTP) 17.01.2018 21:00 UTC Zobrazit METAR
RCTP 172100Z 04017KT 9999 SCT012 BKN020 19/18 Q1016 NOSIG RMK A3001
Taipei (RCSS) 17.01.2018 21:00 UTC Zobrazit METAR
RCSS 172100Z 09010KT 9999 FEW012 BKN020 BKN045 20/19 Q1016 NOSIG RMK A3002
Tallinn (EETN) 17.01.2018 20:50 UTC Zobrazit METAR
EETN 172050Z 10008KT 3600 SN OVC038 M06/M07 Q0996 R08/820294 TEMPO 2000
Tampere (EFTP) 17.01.2018 20:50 UTC Zobrazit METAR
EFTP 172050Z AUTO 07010KT 8000 -SN OVC060 M08/M10 Q0998
Tarawa I (NGTA) 17.01.2018 18:00 UTC Zobrazit METAR
NGTA 171800Z 09010KT 9999 SCT019 BKN040 28/25 Q1007
Targu Mures (LRTM) 17.01.2018 21:00 UTC Zobrazit METAR
LRTM 172100Z AUTO 31013KT 9999 DZ FEW042/// SCT068/// 02/00 Q0995
Tartu (EETU) 17.01.2018 20:50 UTC Zobrazit METAR
EETU 172050Z 10008KT 3400 -SN BKN010 OVC033 M05/M06 Q0996
Tashkent (UTTT) 17.01.2018 21:00 UTC Zobrazit METAR
UTTT 172100Z 36004KT 2100 BR NSC M01/M03 Q1025 R08R/CLRD70 TEMPO 0500 FZFG VV002
Tbilisi (UGGG) Zatím nenačteno  
Tegucigalpa (MHTG) 17.01.2018 21:00 UTC Zobrazit METAR
MHTG 172100Z 36014KT 9999 SCT022 BKN080 16/11 Q1022 A3018 NOSIG
Tehran (OIII) 17.01.2018 21:00 UTC Zobrazit METAR
OIII 172100Z 00000KT 7000 SCT100 SCT200 04/M06 Q1016 A3000 NOSIG
Tel Aviv (LLBG) 17.01.2018 20:50 UTC Zobrazit METAR
LLBG 172050Z 16006KT 9999 SCT034 13/11 Q1016 NOSIG
Tenerife (GCTS) 17.01.2018 21:00 UTC Zobrazit METAR
GCTS 172100Z VRB04KT 9999 FEW031 17/11 Q1022 NOSIG
Thessaloniki (LGTS) 17.01.2018 20:50 UTC Zobrazit METAR
LGTS 172050Z 28006KT 9999 FEW006 BKN020 10/06 Q0994 NOSIG
Thule (BGTL) 17.01.2018 20:56 UTC Zobrazit METAR
BGTL 172056Z AUTO 10004KT 9999 CLR M24/M26 A2978 RMK AO2 SLP077 T12361264 53009 TSNO $
Timisoara (LRTR) 17.01.2018 21:00 UTC Zobrazit METAR
LRTR 172100Z 29007KT 5000 BR BKN009 01/00 Q1002 R11/19//95
Tirana (LATI) 17.01.2018 20:50 UTC Zobrazit METAR
LATI 172050Z 24004KT 190V290 9999 BKN047 BKN110 11/04 Q0999 NOSIG
Tokyo (RJTT) 17.01.2018 21:00 UTC Zobrazit METAR
RJTT 172100Z 04004KT 9999 FEW015 07/04 Q1011 NOSIG
Torp (ENTO) 17.01.2018 20:50 UTC Zobrazit METAR
ENTO 172050Z 31003KT 9999 BKN046 M05/M05 Q0990
Toulouse (LFBO) 17.01.2018 21:00 UTC Zobrazit METAR
LFBO 172100Z AUTO 25009KT 220V280 CAVOK 08/05 Q1027 NOSIG
Tripoli (HLLT) 13.07.2014 03:50 UTC Zobrazit METAR
HLLT 130350Z 11009KT CAVOK 24/15 Q1015
Trondheim (ENVA) 17.01.2018 20:50 UTC Zobrazit METAR
ENVA 172050Z 12011KT CAVOK M01/M09 Q0990 RMK WIND 670FT 15012KT
Tunis (DTTA) 17.01.2018 21:00 UTC Zobrazit METAR
DTTA 172100Z 29010KT 9999 FEW016 SCT040 14/06 Q1022 NOSIG
Turku (EFTU) 17.01.2018 20:50 UTC Zobrazit METAR
EFTU 172050Z AUTO 07006KT 7000 -SN FEW027/// SCT037/// M09/M10 Q0996
Reklama

Počasí na Váš email

Emaily jsou bez reklamy a bez spamu



Odhlásit newsletter

Reklama


Lunární kalendář

  • 24.01.
  • 31.01.
  • 07.02.
  • 15.02.



Jsme na Google Plus

Reklama
Povinné ručení



Může Vás také zajímat:


Reklama